sensor_id;sensor_type;location;lat;lon;timestamp;temperature;humidity
71155;DHT22;59375;53.216;5.728;2022-07-29T00:00:40;14.10;96.50
71155;DHT22;59375;53.216;5.728;2022-07-29T00:03:06;14.10;96.50
71155;DHT22;59375;53.216;5.728;2022-07-29T00:05:31;14.10;96.40
71155;DHT22;59375;53.216;5.728;2022-07-29T00:07:57;14.10;96.50
71155;DHT22;59375;53.216;5.728;2022-07-29T00:10:22;14.10;96.50
71155;DHT22;59375;53.216;5.728;2022-07-29T00:12:48;14.10;96.50
71155;DHT22;59375;53.216;5.728;2022-07-29T00:15:14;14.10;96.50
71155;DHT22;59375;53.216;5.728;2022-07-29T00:17:40;14.10;96.60
71155;DHT22;59375;53.216;5.728;2022-07-29T00:20:06;14.10;96.60
71155;DHT22;59375;53.216;5.728;2022-07-29T00:22:31;14.10;96.60
71155;DHT22;59375;53.216;5.728;2022-07-29T00:24:57;14.10;96.70
71155;DHT22;59375;53.216;5.728;2022-07-29T00:27:22;14.10;96.80
71155;DHT22;59375;53.216;5.728;2022-07-29T00:29:48;14.00;97.00
71155;DHT22;59375;53.216;5.728;2022-07-29T00:32:13;14.00;97.00
71155;DHT22;59375;53.216;5.728;2022-07-29T00:34:39;14.10;97.00
71155;DHT22;59375;53.216;5.728;2022-07-29T00:37:23;14.00;97.00
71155;DHT22;59375;53.216;5.728;2022-07-29T00:39:49;14.10;97.20
71155;DHT22;59375;53.216;5.728;2022-07-29T00:42:15;14.10;97.10
71155;DHT22;59375;53.216;5.728;2022-07-29T00:44:42;14.10;97.00
71155;DHT22;59375;53.216;5.728;2022-07-29T00:47:09;14.20;97.10
71155;DHT22;59375;53.216;5.728;2022-07-29T00:49:35;14.20;97.30
71155;DHT22;59375;53.216;5.728;2022-07-29T00:52:02;14.30;97.00
71155;DHT22;59375;53.216;5.728;2022-07-29T00:54:28;14.30;96.90
71155;DHT22;59375;53.216;5.728;2022-07-29T00:56:56;14.30;96.90
71155;DHT22;59375;53.216;5.728;2022-07-29T00:59:23;14.40;96.90
71155;DHT22;59375;53.216;5.728;2022-07-29T01:01:48;14.40;96.70
71155;DHT22;59375;53.216;5.728;2022-07-29T01:04:14;14.40;96.70
71155;DHT22;59375;53.216;5.728;2022-07-29T01:06:40;14.40;96.80
71155;DHT22;59375;53.216;5.728;2022-07-29T01:09:06;14.50;96.80
71155;DHT22;59375;53.216;5.728;2022-07-29T01:11:33;14.40;96.70
71155;DHT22;59375;53.216;5.728;2022-07-29T01:14:00;14.50;96.80
71155;DHT22;59375;53.216;5.728;2022-07-29T01:16:31;14.50;96.80
71155;DHT22;59375;53.216;5.728;2022-07-29T01:19:06;14.50;96.90
71155;DHT22;59375;53.216;5.728;2022-07-29T01:24:45;14.50;96.90
71155;DHT22;59375;53.216;5.728;2022-07-29T01:27:32;14.50;97.10
71155;DHT22;59375;53.216;5.728;2022-07-29T01:30:04;14.50;96.90
71155;DHT22;59375;53.216;5.728;2022-07-29T01:32:33;14.50;96.80
71155;DHT22;59375;53.216;5.728;2022-07-29T01:35:15;14.60;96.80
71155;DHT22;59375;53.216;5.728;2022-07-29T01:37:50;14.60;96.90
71155;DHT22;59375;53.216;5.728;2022-07-29T01:40:31;14.60;96.90
71155;DHT22;59375;53.216;5.728;2022-07-29T01:43:00;14.60;96.90
71155;DHT22;59375;53.216;5.728;2022-07-29T01:45:40;14.60;96.80
71155;DHT22;59375;53.216;5.728;2022-07-29T01:48:23;14.60;97.00
71155;DHT22;59375;53.216;5.728;2022-07-29T01:51:12;14.60;97.00
71155;DHT22;59375;53.216;5.728;2022-07-29T01:53:46;14.70;97.00
71155;DHT22;59375;53.216;5.728;2022-07-29T01:56:13;14.70;97.00
71155;DHT22;59375;53.216;5.728;2022-07-29T01:58:41;14.60;97.00
71155;DHT22;59375;53.216;5.728;2022-07-29T02:01:09;14.60;97.00
71155;DHT22;59375;53.216;5.728;2022-07-29T02:03:37;14.60;97.00
71155;DHT22;59375;53.216;5.728;2022-07-29T02:06:05;14.60;97.10
71155;DHT22;59375;53.216;5.728;2022-07-29T02:08:32;14.70;97.10
71155;DHT22;59375;53.216;5.728;2022-07-29T02:11:00;14.60;97.10
71155;DHT22;59375;53.216;5.728;2022-07-29T02:13:27;14.70;97.20
71155;DHT22;59375;53.216;5.728;2022-07-29T02:15:55;14.60;97.10
71155;DHT22;59375;53.216;5.728;2022-07-29T02:18:23;14.70;97.20
71155;DHT22;59375;53.216;5.728;2022-07-29T02:20:52;14.70;97.20
71155;DHT22;59375;53.216;5.728;2022-07-29T02:23:21;14.70;97.20
71155;DHT22;59375;53.216;5.728;2022-07-29T02:25:56;14.70;97.20
71155;DHT22;59375;53.216;5.728;2022-07-29T02:28:24;14.80;97.20
71155;DHT22;59375;53.216;5.728;2022-07-29T02:30:52;14.80;97.10
71155;DHT22;59375;53.216;5.728;2022-07-29T02:33:19;14.80;97.10
71155;DHT22;59375;53.216;5.728;2022-07-29T02:35:46;14.80;97.00
71155;DHT22;59375;53.216;5.728;2022-07-29T02:38:16;14.80;96.90
71155;DHT22;59375;53.216;5.728;2022-07-29T02:41:06;14.90;96.90
71155;DHT22;59375;53.216;5.728;2022-07-29T02:43:34;14.90;96.90
71155;DHT22;59375;53.216;5.728;2022-07-29T02:46:02;14.90;96.90
71155;DHT22;59375;53.216;5.728;2022-07-29T02:48:37;14.90;96.80
71155;DHT22;59375;53.216;5.728;2022-07-29T02:51:11;14.90;96.90
71155;DHT22;59375;53.216;5.728;2022-07-29T02:53:38;14.90;96.90
71155;DHT22;59375;53.216;5.728;2022-07-29T02:56:10;14.80;96.90
71155;DHT22;59375;53.216;5.728;2022-07-29T02:58:41;14.80;97.00
71155;DHT22;59375;53.216;5.728;2022-07-29T03:01:12;14.80;96.90
71155;DHT22;59375;53.216;5.728;2022-07-29T03:03:39;14.80;96.90
71155;DHT22;59375;53.216;5.728;2022-07-29T03:06:07;14.80;96.90
71155;DHT22;59375;53.216;5.728;2022-07-29T03:08:34;14.80;96.90
71155;DHT22;59375;53.216;5.728;2022-07-29T03:11:01;14.80;96.80
71155;DHT22;59375;53.216;5.728;2022-07-29T03:13:27;14.80;96.70
71155;DHT22;59375;53.216;5.728;2022-07-29T03:15:55;14.90;96.70
71155;DHT22;59375;53.216;5.728;2022-07-29T03:18:23;14.90;96.60
71155;DHT22;59375;53.216;5.728;2022-07-29T03:20:49;14.90;96.60
71155;DHT22;59375;53.216;5.728;2022-07-29T03:23:19;14.90;96.60
71155;DHT22;59375;53.216;5.728;2022-07-29T03:25:45;14.80;96.50
71155;DHT22;59375;53.216;5.728;2022-07-29T03:28:11;14.80;96.50
71155;DHT22;59375;53.216;5.728;2022-07-29T03:30:36;14.80;96.60
71155;DHT22;59375;53.216;5.728;2022-07-29T03:33:02;14.80;96.60
71155;DHT22;59375;53.216;5.728;2022-07-29T03:35:27;14.70;96.60
71155;DHT22;59375;53.216;5.728;2022-07-29T03:37:53;14.70;96.70
71155;DHT22;59375;53.216;5.728;2022-07-29T03:40:27;14.70;96.70
71155;DHT22;59375;53.216;5.728;2022-07-29T03:42:56;14.70;96.80
71155;DHT22;59375;53.216;5.728;2022-07-29T03:45:22;14.70;96.80
71155;DHT22;59375;53.216;5.728;2022-07-29T03:47:52;14.70;96.80
71155;DHT22;59375;53.216;5.728;2022-07-29T03:50:20;14.70;96.70
71155;DHT22;59375;53.216;5.728;2022-07-29T03:52:47;14.70;96.70
71155;DHT22;59375;53.216;5.728;2022-07-29T03:55:14;14.70;96.80
71155;DHT22;59375;53.216;5.728;2022-07-29T03:57:40;14.70;96.80
71155;DHT22;59375;53.216;5.728;2022-07-29T04:00:07;14.70;96.80
71155;DHT22;59375;53.216;5.728;2022-07-29T04:02:33;14.70;96.80
71155;DHT22;59375;53.216;5.728;2022-07-29T04:04:59;14.70;96.90
71155;DHT22;59375;53.216;5.728;2022-07-29T04:07:25;14.70;96.90
71155;DHT22;59375;53.216;5.728;2022-07-29T04:09:50;14.80;96.90
71155;DHT22;59375;53.216;5.728;2022-07-29T04:12:16;14.80;96.80
71155;DHT22;59375;53.216;5.728;2022-07-29T04:14:41;14.80;96.90
71155;DHT22;59375;53.216;5.728;2022-07-29T04:17:07;14.80;96.90
71155;DHT22;59375;53.216;5.728;2022-07-29T04:19:33;14.80;96.90
71155;DHT22;59375;53.216;5.728;2022-07-29T04:21:59;14.80;96.90
71155;DHT22;59375;53.216;5.728;2022-07-29T04:24:25;14.80;97.00
71155;DHT22;59375;53.216;5.728;2022-07-29T04:26:51;14.80;97.00
71155;DHT22;59375;53.216;5.728;2022-07-29T04:29:17;14.80;97.00
71155;DHT22;59375;53.216;5.728;2022-07-29T04:31:43;14.80;96.90
71155;DHT22;59375;53.216;5.728;2022-07-29T04:34:09;14.90;96.80
71155;DHT22;59375;53.216;5.728;2022-07-29T04:36:35;14.90;96.90
71155;DHT22;59375;53.216;5.728;2022-07-29T04:39:00;14.90;96.80
71155;DHT22;59375;53.216;5.728;2022-07-29T04:41:27;15.00;96.60
71155;DHT22;59375;53.216;5.728;2022-07-29T04:43:52;15.00;96.60
71155;DHT22;59375;53.216;5.728;2022-07-29T04:46:18;15.00;96.60
71155;DHT22;59375;53.216;5.728;2022-07-29T04:48:45;15.00;96.70
71155;DHT22;59375;53.216;5.728;2022-07-29T04:51:11;15.00;96.80
71155;DHT22;59375;53.216;5.728;2022-07-29T04:53:37;15.10;96.80
71155;DHT22;59375;53.216;5.728;2022-07-29T04:56:02;15.10;96.80
71155;DHT22;59375;53.216;5.728;2022-07-29T04:58:28;15.10;96.70
71155;DHT22;59375;53.216;5.728;2022-07-29T05:00:54;15.10;96.60
71155;DHT22;59375;53.216;5.728;2022-07-29T05:03:19;15.10;96.60
71155;DHT22;59375;53.216;5.728;2022-07-29T05:05:45;15.20;96.50
71155;DHT22;59375;53.216;5.728;2022-07-29T05:08:10;15.20;96.60
71155;DHT22;59375;53.216;5.728;2022-07-29T05:10:36;15.20;96.60
71155;DHT22;59375;53.216;5.728;2022-07-29T05:13:07;15.20;96.50
71155;DHT22;59375;53.216;5.728;2022-07-29T05:15:37;15.20;96.50
71155;DHT22;59375;53.216;5.728;2022-07-29T05:18:03;15.20;96.50
71155;DHT22;59375;53.216;5.728;2022-07-29T05:20:29;15.30;96.50
71155;DHT22;59375;53.216;5.728;2022-07-29T05:22:56;15.30;96.50
71155;DHT22;59375;53.216;5.728;2022-07-29T05:25:23;15.30;96.50
71155;DHT22;59375;53.216;5.728;2022-07-29T05:27:48;15.40;96.40
71155;DHT22;59375;53.216;5.728;2022-07-29T05:30:14;15.40;96.50
71155;DHT22;59375;53.216;5.728;2022-07-29T05:32:39;15.40;96.30
71155;DHT22;59375;53.216;5.728;2022-07-29T05:35:05;15.50;96.30
71155;DHT22;59375;53.216;5.728;2022-07-29T05:37:31;15.50;96.30
71155;DHT22;59375;53.216;5.728;2022-07-29T05:39:56;15.60;96.20
71155;DHT22;59375;53.216;5.728;2022-07-29T05:42:23;15.60;96.20
71155;DHT22;59375;53.216;5.728;2022-07-29T05:44:48;15.60;96.40
71155;DHT22;59375;53.216;5.728;2022-07-29T05:47:14;15.60;96.40
71155;DHT22;59375;53.216;5.728;2022-07-29T05:49:39;15.70;96.60
71155;DHT22;59375;53.216;5.728;2022-07-29T05:52:05;15.70;96.20
71155;DHT22;59375;53.216;5.728;2022-07-29T05:54:30;15.70;96.20
71155;DHT22;59375;53.216;5.728;2022-07-29T05:56:56;15.70;96.30
71155;DHT22;59375;53.216;5.728;2022-07-29T05:59:21;15.80;96.20
71155;DHT22;59375;53.216;5.728;2022-07-29T06:01:47;15.80;96.10
71155;DHT22;59375;53.216;5.728;2022-07-29T06:04:12;15.80;96.10
71155;DHT22;59375;53.216;5.728;2022-07-29T06:06:38;15.90;96.10
71155;DHT22;59375;53.216;5.728;2022-07-29T06:09:03;16.00;96.00
71155;DHT22;59375;53.216;5.728;2022-07-29T06:11:29;16.10;95.80
71155;DHT22;59375;53.216;5.728;2022-07-29T06:13:55;16.20;95.70
71155;DHT22;59375;53.216;5.728;2022-07-29T06:16:20;16.40;95.50
71155;DHT22;59375;53.216;5.728;2022-07-29T06:18:46;16.60;95.40
71155;DHT22;59375;53.216;5.728;2022-07-29T06:21:11;16.80;95.00
71155;DHT22;59375;53.216;5.728;2022-07-29T06:23:38;17.10;94.90
71155;DHT22;59375;53.216;5.728;2022-07-29T06:26:04;17.30;94.50
71155;DHT22;59375;53.216;5.728;2022-07-29T06:28:30;17.40;94.10
71155;DHT22;59375;53.216;5.728;2022-07-29T06:30:56;17.50;94.10
71155;DHT22;59375;53.216;5.728;2022-07-29T06:33:21;17.70;93.70
71155;DHT22;59375;53.216;5.728;2022-07-29T06:35:47;17.70;93.40
71155;DHT22;59375;53.216;5.728;2022-07-29T06:38:13;17.80;93.00
71155;DHT22;59375;53.216;5.728;2022-07-29T06:40:43;17.70;92.30
71155;DHT22;59375;53.216;5.728;2022-07-29T06:46:13;17.50;92.40
71155;DHT22;59375;53.216;5.728;2022-07-29T06:48:40;17.50;92.60
71155;DHT22;59375;53.216;5.728;2022-07-29T06:51:07;17.60;92.70
71155;DHT22;59375;53.216;5.728;2022-07-29T06:53:33;17.60;92.80
71155;DHT22;59375;53.216;5.728;2022-07-29T06:56:00;17.70;92.20
71155;DHT22;59375;53.216;5.728;2022-07-29T06:58:26;17.70;92.20
71155;DHT22;59375;53.216;5.728;2022-07-29T07:00:52;17.70;92.70
71155;DHT22;59375;53.216;5.728;2022-07-29T07:03:18;17.80;91.90
71155;DHT22;59375;53.216;5.728;2022-07-29T07:05:46;17.90;91.60
71155;DHT22;59375;53.216;5.728;2022-07-29T07:08:12;18.10;91.30
71155;DHT22;59375;53.216;5.728;2022-07-29T07:10:38;18.10;91.30
71155;DHT22;59375;53.216;5.728;2022-07-29T07:13:04;18.10;90.80
71155;DHT22;59375;53.216;5.728;2022-07-29T07:15:30;18.10;91.20
71155;DHT22;59375;53.216;5.728;2022-07-29T07:17:56;18.10;91.40
71155;DHT22;59375;53.216;5.728;2022-07-29T07:20:22;18.10;91.30
71155;DHT22;59375;53.216;5.728;2022-07-29T07:22:48;18.10;90.80
71155;DHT22;59375;53.216;5.728;2022-07-29T07:25:14;18.10;91.20
71155;DHT22;59375;53.216;5.728;2022-07-29T07:27:39;18.10;91.20
71155;DHT22;59375;53.216;5.728;2022-07-29T07:30:06;18.10;91.50
71155;DHT22;59375;53.216;5.728;2022-07-29T07:32:33;18.10;91.70
71155;DHT22;59375;53.216;5.728;2022-07-29T07:34:59;18.00;90.90
71155;DHT22;59375;53.216;5.728;2022-07-29T07:37:25;18.00;91.00
71155;DHT22;59375;53.216;5.728;2022-07-29T07:39:52;18.00;91.00
71155;DHT22;59375;53.216;5.728;2022-07-29T07:42:18;17.90;91.10
71155;DHT22;59375;53.216;5.728;2022-07-29T07:44:43;17.90;91.20
71155;DHT22;59375;53.216;5.728;2022-07-29T07:47:16;17.90;91.60
71155;DHT22;59375;53.216;5.728;2022-07-29T07:49:51;17.90;91.50
71155;DHT22;59375;53.216;5.728;2022-07-29T07:52:19;17.90;91.40
71155;DHT22;59375;53.216;5.728;2022-07-29T07:54:45;17.90;91.50
71155;DHT22;59375;53.216;5.728;2022-07-29T07:57:11;17.90;90.80
71155;DHT22;59375;53.216;5.728;2022-07-29T07:59:37;17.90;91.00
71155;DHT22;59375;53.216;5.728;2022-07-29T08:02:04;17.90;91.20
71155;DHT22;59375;53.216;5.728;2022-07-29T08:04:29;17.90;91.50
71155;DHT22;59375;53.216;5.728;2022-07-29T08:06:56;17.90;91.70
71155;DHT22;59375;53.216;5.728;2022-07-29T08:09:22;17.80;91.60
71155;DHT22;59375;53.216;5.728;2022-07-29T08:11:47;17.80;91.60
71155;DHT22;59375;53.216;5.728;2022-07-29T08:14:13;17.80;91.70
71155;DHT22;59375;53.216;5.728;2022-07-29T08:16:39;17.80;91.80
71155;DHT22;59375;53.216;5.728;2022-07-29T08:19:05;17.90;91.50
71155;DHT22;59375;53.216;5.728;2022-07-29T08:21:31;18.00;91.80
71155;DHT22;59375;53.216;5.728;2022-07-29T08:23:56;18.10;91.60
71155;DHT22;59375;53.216;5.728;2022-07-29T08:26:44;18.20;91.70
71155;DHT22;59375;53.216;5.728;2022-07-29T08:29:10;18.40;91.40
71155;DHT22;59375;53.216;5.728;2022-07-29T08:31:37;18.50;91.00
71155;DHT22;59375;53.216;5.728;2022-07-29T08:34:03;18.60;91.70
71155;DHT22;59375;53.216;5.728;2022-07-29T08:36:29;18.80;91.00
71155;DHT22;59375;53.216;5.728;2022-07-29T08:38:55;18.90;91.10
71155;DHT22;59375;53.216;5.728;2022-07-29T08:41:21;19.10;91.00
71155;DHT22;59375;53.216;5.728;2022-07-29T08:43:48;19.10;90.10
71155;DHT22;59375;53.216;5.728;2022-07-29T08:46:14;19.10;90.60
71155;DHT22;59375;53.216;5.728;2022-07-29T08:48:41;19.10;90.60
71155;DHT22;59375;53.216;5.728;2022-07-29T08:51:07;19.10;90.60
71155;DHT22;59375;53.216;5.728;2022-07-29T08:53:33;19.10;91.00
71155;DHT22;59375;53.216;5.728;2022-07-29T08:55:59;19.10;90.60
71155;DHT22;59375;53.216;5.728;2022-07-29T08:58:25;19.10;90.40
71155;DHT22;59375;53.216;5.728;2022-07-29T09:00:55;19.00;90.40
71155;DHT22;59375;53.216;5.728;2022-07-29T09:03:23;19.00;90.50
71155;DHT22;59375;53.216;5.728;2022-07-29T09:05:50;18.90;90.50
71155;DHT22;59375;53.216;5.728;2022-07-29T09:08:17;18.90;90.70
71155;DHT22;59375;53.216;5.728;2022-07-29T09:10:43;18.80;90.20
71155;DHT22;59375;53.216;5.728;2022-07-29T09:13:09;18.80;90.50
71155;DHT22;59375;53.216;5.728;2022-07-29T09:15:34;18.90;90.80
71155;DHT22;59375;53.216;5.728;2022-07-29T09:18:00;18.90;91.10
71155;DHT22;59375;53.216;5.728;2022-07-29T09:20:26;18.90;90.70
71155;DHT22;59375;53.216;5.728;2022-07-29T09:23:12;18.90;91.10
71155;DHT22;59375;53.216;5.728;2022-07-29T09:25:40;18.90;91.70
71155;DHT22;59375;53.216;5.728;2022-07-29T09:28:13;18.90;90.90
71155;DHT22;59375;53.216;5.728;2022-07-29T09:31:00;18.90;91.40
71155;DHT22;59375;53.216;5.728;2022-07-29T09:33:32;18.90;90.70
71155;DHT22;59375;53.216;5.728;2022-07-29T09:36:06;18.90;91.40
71155;DHT22;59375;53.216;5.728;2022-07-29T09:38:33;19.10;91.50
71155;DHT22;59375;53.216;5.728;2022-07-29T09:41:02;19.20;91.60
71155;DHT22;59375;53.216;5.728;2022-07-29T09:43:28;19.30;91.10
71155;DHT22;59375;53.216;5.728;2022-07-29T09:45:53;19.30;91.20
71155;DHT22;59375;53.216;5.728;2022-07-29T09:48:25;19.30;91.10
71155;DHT22;59375;53.216;5.728;2022-07-29T09:50:51;19.20;91.40
71155;DHT22;59375;53.216;5.728;2022-07-29T09:53:34;19.30;91.40
71155;DHT22;59375;53.216;5.728;2022-07-29T09:56:01;19.30;90.90
71155;DHT22;59375;53.216;5.728;2022-07-29T09:58:27;19.30;90.80
71155;DHT22;59375;53.216;5.728;2022-07-29T10:00:53;19.30;91.10
71155;DHT22;59375;53.216;5.728;2022-07-29T10:03:20;19.30;91.50
71155;DHT22;59375;53.216;5.728;2022-07-29T10:05:46;19.30;91.50
71155;DHT22;59375;53.216;5.728;2022-07-29T10:08:28;19.30;91.60
71155;DHT22;59375;53.216;5.728;2022-07-29T10:11:16;19.30;91.30
71155;DHT22;59375;53.216;5.728;2022-07-29T10:13:45;19.30;90.60
71155;DHT22;59375;53.216;5.728;2022-07-29T10:16:11;19.20;90.70
71155;DHT22;59375;53.216;5.728;2022-07-29T10:18:41;19.20;91.10
71155;DHT22;59375;53.216;5.728;2022-07-29T10:21:07;19.10;91.10
71155;DHT22;59375;53.216;5.728;2022-07-29T10:23:33;19.10;91.50
71155;DHT22;59375;53.216;5.728;2022-07-29T10:26:00;19.00;91.70
71155;DHT22;59375;53.216;5.728;2022-07-29T10:28:25;19.00;91.60
71155;DHT22;59375;53.216;5.728;2022-07-29T10:30:52;19.00;91.70
71155;DHT22;59375;53.216;5.728;2022-07-29T10:33:41;18.90;91.30
71155;DHT22;59375;53.216;5.728;2022-07-29T10:36:39;18.80;91.80
71155;DHT22;59375;53.216;5.728;2022-07-29T10:44:28;18.70;92.00
71155;DHT22;59375;53.216;5.728;2022-07-29T10:46:54;18.70;92.20
71155;DHT22;59375;53.216;5.728;2022-07-29T10:49:27;18.70;92.40
71155;DHT22;59375;53.216;5.728;2022-07-29T10:52:08;18.80;92.50
71155;DHT22;59375;53.216;5.728;2022-07-29T10:59:39;18.90;93.00
71155;DHT22;59375;53.216;5.728;2022-07-29T11:07:20;19.10;92.30
71155;DHT22;59375;53.216;5.728;2022-07-29T11:15:20;19.10;92.60
71155;DHT22;59375;53.216;5.728;2022-07-29T11:18:02;19.20;92.20
71155;DHT22;59375;53.216;5.728;2022-07-29T11:20:41;19.10;92.70
71155;DHT22;59375;53.216;5.728;2022-07-29T11:23:30;19.20;92.50
71155;DHT22;59375;53.216;5.728;2022-07-29T11:34:31;19.20;92.00
71155;DHT22;59375;53.216;5.728;2022-07-29T11:39:40;19.20;92.20
71155;DHT22;59375;53.216;5.728;2022-07-29T11:44:59;19.20;92.30
71155;DHT22;59375;53.216;5.728;2022-07-29T11:47:27;19.30;92.40
71155;DHT22;59375;53.216;5.728;2022-07-29T11:49:53;19.30;92.70
71155;DHT22;59375;53.216;5.728;2022-07-29T11:52:20;19.40;92.50
71155;DHT22;59375;53.216;5.728;2022-07-29T11:54:48;19.30;92.60
71155;DHT22;59375;53.216;5.728;2022-07-29T11:57:18;19.40;92.20
71155;DHT22;59375;53.216;5.728;2022-07-29T11:59:45;19.40;92.10
71155;DHT22;59375;53.216;5.728;2022-07-29T12:02:13;19.50;92.00
71155;DHT22;59375;53.216;5.728;2022-07-29T12:04:49;19.50;91.90
71155;DHT22;59375;53.216;5.728;2022-07-29T12:07:15;19.50;91.30
71155;DHT22;59375;53.216;5.728;2022-07-29T12:09:49;19.50;91.70
71155;DHT22;59375;53.216;5.728;2022-07-29T12:12:16;19.60;91.90
71155;DHT22;59375;53.216;5.728;2022-07-29T12:14:42;19.60;91.80
71155;DHT22;59375;53.216;5.728;2022-07-29T12:19:57;19.80;92.50
71155;DHT22;59375;53.216;5.728;2022-07-29T12:22:27;19.80;92.00
71155;DHT22;59375;53.216;5.728;2022-07-29T12:24:54;19.90;92.10
71155;DHT22;59375;53.216;5.728;2022-07-29T12:27:19;20.00;91.40
71155;DHT22;59375;53.216;5.728;2022-07-29T12:29:58;20.10;91.50
71155;DHT22;59375;53.216;5.728;2022-07-29T12:32:37;20.10;91.60
71155;DHT22;59375;53.216;5.728;2022-07-29T12:35:05;20.20;91.00
71155;DHT22;59375;53.216;5.728;2022-07-29T12:37:32;20.30;91.50
71155;DHT22;59375;53.216;5.728;2022-07-29T12:39:58;20.40;91.20
71155;DHT22;59375;53.216;5.728;2022-07-29T12:42:24;20.50;91.20
71155;DHT22;59375;53.216;5.728;2022-07-29T12:44:50;20.50;91.10
71155;DHT22;59375;53.216;5.728;2022-07-29T12:47:18;20.50;90.80
71155;DHT22;59375;53.216;5.728;2022-07-29T12:49:45;20.60;91.10
71155;DHT22;59375;53.216;5.728;2022-07-29T12:52:25;20.60;90.60
71155;DHT22;59375;53.216;5.728;2022-07-29T12:54:51;20.70;91.20
71155;DHT22;59375;53.216;5.728;2022-07-29T12:57:17;20.80;90.40
71155;DHT22;59375;53.216;5.728;2022-07-29T12:59:42;20.80;90.60
71155;DHT22;59375;53.216;5.728;2022-07-29T13:02:21;20.90;90.60
71155;DHT22;59375;53.216;5.728;2022-07-29T13:04:56;21.00;90.10
71155;DHT22;59375;53.216;5.728;2022-07-29T13:07:27;21.10;89.70
71155;DHT22;59375;53.216;5.728;2022-07-29T13:10:09;21.20;89.50
71155;DHT22;59375;53.216;5.728;2022-07-29T13:12:35;21.40;90.20
71155;DHT22;59375;53.216;5.728;2022-07-29T13:15:15;21.50;90.00
71155;DHT22;59375;53.216;5.728;2022-07-29T13:17:44;21.50;89.60
71155;DHT22;59375;53.216;5.728;2022-07-29T13:20:11;21.50;87.70
71155;DHT22;59375;53.216;5.728;2022-07-29T13:22:42;21.60;88.90
71155;DHT22;59375;53.216;5.728;2022-07-29T13:25:08;21.80;89.50
71155;DHT22;59375;53.216;5.728;2022-07-29T13:27:36;21.80;88.70
71155;DHT22;59375;53.216;5.728;2022-07-29T13:30:05;21.80;87.80
71155;DHT22;59375;53.216;5.728;2022-07-29T13:32:32;21.80;87.90
71155;DHT22;59375;53.216;5.728;2022-07-29T13:35:01;21.90;88.60
71155;DHT22;59375;53.216;5.728;2022-07-29T13:37:27;21.90;88.30
71155;DHT22;59375;53.216;5.728;2022-07-29T13:39:55;21.80;87.40
71155;DHT22;59375;53.216;5.728;2022-07-29T13:42:21;21.60;87.90
71155;DHT22;59375;53.216;5.728;2022-07-29T13:44:47;21.60;88.60
71155;DHT22;59375;53.216;5.728;2022-07-29T13:47:13;21.50;88.90
71155;DHT22;59375;53.216;5.728;2022-07-29T13:49:41;21.50;89.60
71155;DHT22;59375;53.216;5.728;2022-07-29T13:52:06;21.60;89.10
71155;DHT22;59375;53.216;5.728;2022-07-29T13:54:32;21.90;88.20
71155;DHT22;59375;53.216;5.728;2022-07-29T13:56:58;22.20;88.30
71155;DHT22;59375;53.216;5.728;2022-07-29T13:59:23;22.60;88.60
71155;DHT22;59375;53.216;5.728;2022-07-29T14:01:49;22.80;86.40
71155;DHT22;59375;53.216;5.728;2022-07-29T14:04:14;23.10;84.90
71155;DHT22;59375;53.216;5.728;2022-07-29T14:06:40;23.20;83.50
71155;DHT22;59375;53.216;5.728;2022-07-29T14:09:06;23.40;83.00
71155;DHT22;59375;53.216;5.728;2022-07-29T14:11:33;23.40;82.80
71155;DHT22;59375;53.216;5.728;2022-07-29T14:13:59;23.50;82.70
71155;DHT22;59375;53.216;5.728;2022-07-29T14:16:25;23.60;82.40
71155;DHT22;59375;53.216;5.728;2022-07-29T14:18:50;23.70;82.00
71155;DHT22;59375;53.216;5.728;2022-07-29T14:21:16;23.80;80.20
71155;DHT22;59375;53.216;5.728;2022-07-29T14:23:41;23.70;79.80
71155;DHT22;59375;53.216;5.728;2022-07-29T14:26:07;23.70;79.50
71155;DHT22;59375;53.216;5.728;2022-07-29T14:28:33;23.70;79.40
71155;DHT22;59375;53.216;5.728;2022-07-29T14:30:58;23.80;79.50
71155;DHT22;59375;53.216;5.728;2022-07-29T14:33:24;23.80;79.80
71155;DHT22;59375;53.216;5.728;2022-07-29T14:35:49;23.80;79.60
71155;DHT22;59375;53.216;5.728;2022-07-29T14:38:15;23.80;79.80
71155;DHT22;59375;53.216;5.728;2022-07-29T14:40:40;23.80;80.30
71155;DHT22;59375;53.216;5.728;2022-07-29T14:43:06;23.70;80.00
71155;DHT22;59375;53.216;5.728;2022-07-29T14:45:31;23.40;79.50
71155;DHT22;59375;53.216;5.728;2022-07-29T14:47:57;23.30;79.80
71155;DHT22;59375;53.216;5.728;2022-07-29T14:50:22;23.20;81.00
71155;DHT22;59375;53.216;5.728;2022-07-29T14:52:48;23.20;81.40
71155;DHT22;59375;53.216;5.728;2022-07-29T14:55:14;23.20;81.60
71155;DHT22;59375;53.216;5.728;2022-07-29T14:57:39;23.30;81.20
71155;DHT22;59375;53.216;5.728;2022-07-29T15:00:05;23.40;80.80
71155;DHT22;59375;53.216;5.728;2022-07-29T15:02:33;23.50;78.20
71155;DHT22;59375;53.216;5.728;2022-07-29T15:04:59;23.40;78.00
71155;DHT22;59375;53.216;5.728;2022-07-29T15:07:25;23.50;79.00
71155;DHT22;59375;53.216;5.728;2022-07-29T15:09:51;23.50;76.90
71155;DHT22;59375;53.216;5.728;2022-07-29T15:12:16;23.50;77.10
71155;DHT22;59375;53.216;5.728;2022-07-29T15:14:42;23.50;77.60
71155;DHT22;59375;53.216;5.728;2022-07-29T15:17:07;23.60;77.40
71155;DHT22;59375;53.216;5.728;2022-07-29T15:19:33;23.60;76.20
71155;DHT22;59375;53.216;5.728;2022-07-29T15:21:59;23.60;76.20
71155;DHT22;59375;53.216;5.728;2022-07-29T15:24:25;23.50;75.80
71155;DHT22;59375;53.216;5.728;2022-07-29T15:26:50;23.60;75.50
71155;DHT22;59375;53.216;5.728;2022-07-29T15:29:16;23.50;75.20
71155;DHT22;59375;53.216;5.728;2022-07-29T15:31:43;23.50;74.50
71155;DHT22;59375;53.216;5.728;2022-07-29T15:34:08;23.40;75.20
71155;DHT22;59375;53.216;5.728;2022-07-29T15:36:34;23.30;76.20
71155;DHT22;59375;53.216;5.728;2022-07-29T15:39:00;23.20;76.10
71155;DHT22;59375;53.216;5.728;2022-07-29T15:41:26;23.20;75.90
71155;DHT22;59375;53.216;5.728;2022-07-29T15:43:51;23.20;76.20
71155;DHT22;59375;53.216;5.728;2022-07-29T15:46:18;23.30;76.40
71155;DHT22;59375;53.216;5.728;2022-07-29T15:49:04;23.40;77.10
71155;DHT22;59375;53.216;5.728;2022-07-29T15:51:30;23.40;76.60
71155;DHT22;59375;53.216;5.728;2022-07-29T15:53:56;23.40;76.70
71155;DHT22;59375;53.216;5.728;2022-07-29T15:56:23;23.40;77.70
71155;DHT22;59375;53.216;5.728;2022-07-29T15:58:49;23.30;77.70
71155;DHT22;59375;53.216;5.728;2022-07-29T16:01:14;23.40;78.10
71155;DHT22;59375;53.216;5.728;2022-07-29T16:03:40;23.50;79.80
71155;DHT22;59375;53.216;5.728;2022-07-29T16:06:06;23.60;78.40
71155;DHT22;59375;53.216;5.728;2022-07-29T16:08:31;23.70;81.50
71155;DHT22;59375;53.216;5.728;2022-07-29T16:10:57;23.60;84.20
71155;DHT22;59375;53.216;5.728;2022-07-29T16:13:22;23.60;83.80
71155;DHT22;59375;53.216;5.728;2022-07-29T16:15:48;23.70;84.40
71155;DHT22;59375;53.216;5.728;2022-07-29T16:18:13;23.70;83.80